Time;durP1;ratioP1;P1;durP2;ratioP2;P2;SDS_P1;SDS_P2;PMS_P1;PMS_P2;Temp;Humidity;BMP_temperature;BMP_pressure;BME280_temperature;BME280_humidity;BME280_pressure;Samples;Min_cycle;Max_cycle;Signal;HPM_P1;HPM_P2
2022/01/02 00:02:20;;;;;;;10.68;6.70;;;12.00;99.90;;;;;;5062587;28;20504;-48
2022/01/02 00:04:49;;;;;;;13.15;6.03;;;12.30;99.90;;;;;;5078006;28;20122;-48
2022/01/02 00:07:16;;;;;;;12.45;6.30;;;11.20;99.90;;;;;;5083814;28;20618;-50
2022/01/02 00:09:50;;;;;;;14.30;6.28;;;11.10;99.90;;;;;;5082145;28;20063;-48
2022/01/02 00:12:23;;;;;;;12.00;7.28;;;11.20;99.90;;;;;;5071826;28;20670;-48
2022/01/02 00:14:54;;;;;;;12.32;6.88;;;11.00;99.90;;;;;;5083434;28;20515;-49
2022/01/02 00:17:23;;;;;;;14.75;6.35;;;11.00;99.90;;;;;;5076842;28;20127;-51
2022/01/02 00:19:56;;;;;;;12.50;6.00;;;11.00;99.90;;;;;;5081364;28;20120;-49
2022/01/02 00:22:30;;;;;;;12.43;6.03;;;11.10;99.90;;;;;;5069057;28;20536;-49
2022/01/02 00:24:57;;;;;;;16.98;7.53;;;11.00;99.90;;;;;;5082408;28;20123;-50
2022/01/02 00:27:24;;;;;;;15.43;6.88;;;12.20;99.90;;;;;;5070868;28;20485;-49
2022/01/02 00:29:51;;;;;;;16.02;5.85;;;12.30;99.90;;;;;;5071973;28;20044;-50
2022/01/02 00:32:17;;;;;;;16.15;6.43;;;10.90;99.90;;;;;;5082362;28;20067;-50
2022/01/02 00:34:46;;;;;;;16.65;7.00;;;12.00;99.90;;;;;;5070489;28;20749;-50
2022/01/02 00:37:11;;;;;;;14.18;6.68;;;11.40;99.90;;;;;;5072713;28;20055;-49
2022/01/02 00:39:39;;;;;;;12.05;6.03;;;12.10;99.90;;;;;;5062068;28;20472;-50
2022/01/02 00:42:17;;;;;;;15.80;6.95;;;11.10;99.90;;;;;;5073297;28;20043;-47
2022/01/02 00:45:12;;;;;;;11.88;6.43;;;12.00;99.90;;;;;;5081792;28;20032;-46
2022/01/02 00:47:55;;;;;;;17.20;7.68;;;11.20;99.90;;;;;;5062586;28;20032;-46
2022/01/02 00:50:30;;;;;;;17.17;7.75;;;11.00;99.90;;;;;;5081365;28;20337;-47
2022/01/02 00:52:58;;;;;;;15.00;6.75;;;10.90;99.90;;;;;;5073971;28;20036;-46
2022/01/02 00:55:25;;;;;;;13.55;6.70;;;11.00;99.90;;;;;;5077483;28;20054;-45
2022/01/02 00:58:08;;;;;;;14.98;6.78;;;11.80;99.90;;;;;;5075028;28;20089;-45
2022/01/02 01:00:34;;;;;;;17.50;6.95;;;10.90;99.90;;;;;;5080744;28;20118;-45
2022/01/02 01:03:06;;;;;;;17.05;6.88;;;10.90;99.90;;;;;;5073148;28;20040;-45
2022/01/02 01:05:34;;;;;;;22.73;7.35;;;11.10;99.90;;;;;;5066006;28;20040;-45
2022/01/02 01:08:07;;;;;;;17.45;7.28;;;11.90;99.90;;;;;;5062890;28;20048;-49
2022/01/02 01:10:39;;;;;;;17.15;7.95;;;11.70;99.90;;;;;;5083351;28;20078;-45
2022/01/02 01:13:08;;;;;;;15.55;7.70;;;12.20;99.90;;;;;;5064998;28;20048;-46
2022/01/02 01:15:35;;;;;;;13.65;7.85;;;12.30;99.90;;;;;;5060155;28;20420;-45
2022/01/02 01:18:02;;;;;;;15.95;7.78;;;12.20;99.90;;;;;;5066522;28;20575;-46
2022/01/02 01:20:39;;;;;;;15.77;7.15;;;10.90;99.90;;;;;;5070143;28;20416;-45
2022/01/02 01:23:07;;;;;;;16.48;7.68;;;11.10;99.90;;;;;;5073372;28;20052;-47
2022/01/02 01:25:33;;;;;;;12.73;7.38;;;10.90;99.90;;;;;;5076560;28;20077;-46
2022/01/02 01:28:00;;;;;;;13.35;8.15;;;11.00;99.90;;;;;;5081857;28;20039;-47
2022/01/02 01:30:28;;;;;;;19.98;8.20;;;10.80;99.90;;;;;;5066168;28;20052;-50
2022/01/02 01:32:54;;;;;;;16.33;7.45;;;11.00;99.90;;;;;;5061845;28;20531;-46
2022/01/02 01:35:22;;;;;;;19.77;8.20;;;10.90;99.90;;;;;;5062003;28;20036;-46
2022/01/02 01:37:50;;;;;;;15.77;7.82;;;11.00;99.90;;;;;;5073440;28;20051;-46
2022/01/02 01:40:16;;;;;;;20.10;8.65;;;11.60;99.90;;;;;;5077523;28;20037;-45
2022/01/02 01:42:54;;;;;;;15.27;8.25;;;11.00;99.90;;;;;;5072034;28;20044;-45
2022/01/02 01:47:51;;;;;;;16.17;8.65;;;11.00;99.90;;;;;;5073785;28;20040;-47
2022/01/02 01:50:19;;;;;;;19.50;9.13;;;11.00;99.90;;;;;;5080522;28;20440;-49
2022/01/02 01:52:47;;;;;;;23.48;9.50;;;11.70;99.90;;;;;;5073763;28;20071;-46
2022/01/02 01:55:12;;;;;;;20.10;9.43;;;11.10;99.90;;;;;;5081484;28;20040;-48
2022/01/02 01:57:40;;;;;;;18.17;9.40;;;10.90;99.90;;;;;;5068634;28;20055;-47
2022/01/02 02:00:14;;;;;;;19.15;9.25;;;12.30;99.90;;;;;;5080951;28;20043;-49
2022/01/02 02:02:41;;;;;;;17.65;8.70;;;10.90;99.90;;;;;;5065899;28;20032;-49
2022/01/02 02:05:07;;;;;;;21.70;11.20;;;11.50;99.90;;;;;;5075833;28;20409;-47
2022/01/02 02:07:41;;;;;;;20.73;10.35;;;10.80;99.90;;;;;;5077743;28;20039;-47
2022/01/02 02:10:18;;;;;;;22.30;11.60;;;10.80;99.90;;;;;;5081202;28;20589;-45
2022/01/02 02:12:47;;;;;;;26.73;12.25;;;12.10;99.90;;;;;;5072213;28;20040;-45
2022/01/02 02:15:15;;;;;;;25.92;10.90;;;12.90;99.90;;;;;;5068470;28;20423;-45
2022/01/02 02:17:46;;;;;;;21.70;10.73;;;11.00;99.90;;;;;;5064380;28;20128;-49
2022/01/02 02:20:18;;;;;;;27.50;12.35;;;10.80;99.90;;;;;;5081480;28;20084;-47
2022/01/02 02:22:46;;;;;;;27.20;11.85;;;11.30;99.90;;;;;;5068655;28;20035;-48
2022/01/02 02:25:17;;;;;;;25.75;11.57;;;10.70;99.90;;;;;;5081669;28;20149;-44
2022/01/02 02:27:57;;;;;;;23.77;12.07;;;11.70;99.90;;;;;;5073549;28;20090;-44
2022/01/02 02:30:27;;;;;;;24.00;11.07;;;10.80;99.90;;;;;;5066622;28;20151;-50
2022/01/02 02:32:54;;;;;;;20.27;11.25;;;11.70;99.90;;;;;;5082005;28;20123;-49
2022/01/02 02:35:20;;;;;;;21.38;11.60;;;11.70;99.90;;;;;;5080972;28;20028;-48
2022/01/02 02:37:48;;;;;;;26.35;12.32;;;11.40;99.90;;;;;;5077373;28;20118;-49
2022/01/02 02:40:17;;;;;;;23.38;11.80;;;11.70;99.90;;;;;;5071396;28;20473;-49
2022/01/02 02:42:52;;;;;;;29.58;12.52;;;11.00;99.90;;;;;;5060838;28;20087;-45
2022/01/02 02:51:06;;;;;;;26.15;12.13;;;10.70;99.90;;;;;;5072776;28;20485;-47
2022/01/02 02:53:35;;;;;;;23.55;12.57;;;10.80;99.90;;;;;;5072246;28;20043;-45
2022/01/02 02:56:12;;;;;;;26.33;12.57;;;11.70;99.90;;;;;;5078879;28;20520;-49
2022/01/02 02:58:41;;;;;;;25.20;12.57;;;10.70;99.90;;;;;;5069524;28;20471;-46
2022/01/02 03:01:17;;;;;;;23.52;13.10;;;10.70;99.90;;;;;;5082217;28;20051;-45
2022/01/02 03:03:44;;;;;;;22.50;12.45;;;10.60;99.90;;;;;;5071503;28;20094;-45
2022/01/02 03:06:10;;;;;;;24.42;13.05;;;10.70;99.90;;;;;;5078949;28;20492;-46
2022/01/02 03:08:37;;;;;;;29.50;14.30;;;11.90;99.90;;;;;;5072817;28;20568;-44
2022/01/02 03:11:06;;;;;;;26.98;12.98;;;10.80;99.90;;;;;;5077212;28;20153;-44
2022/01/02 03:13:32;;;;;;;22.88;14.57;;;10.70;99.90;;;;;;5075585;28;20043;-44
2022/01/02 03:15:57;;;;;;;23.88;13.82;;;10.90;99.90;;;;;;5072517;28;20036;-47
2022/01/02 03:18:25;;;;;;;28.77;14.38;;;10.50;99.90;;;;;;5084601;28;20142;-49
2022/01/02 03:20:51;;;;;;;25.27;14.75;;;10.50;99.90;;;;;;5080930;28;20413;-46
2022/01/02 03:23:16;;;;;;;29.20;13.80;;;10.80;99.90;;;;;;5067164;28;20037;-45
2022/01/02 03:25:44;;;;;;;28.20;14.10;;;10.90;99.90;;;;;;5067513;28;20657;-44
2022/01/02 03:28:10;;;;;;;27.45;13.80;;;11.50;99.90;;;;;;5081340;28;20036;-44
2022/01/02 03:30:35;;;;;;;28.42;14.43;;;10.60;99.90;;;;;;5084878;28;20048;-44
2022/01/02 03:33:01;;;;;;;31.10;14.75;;;11.70;99.90;;;;;;5071675;28;20032;-44
2022/01/02 03:35:27;;;;;;;29.65;14.27;;;11.20;99.90;;;;;;5076210;28;20401;-43
2022/01/02 03:37:54;;;;;;;31.63;14.40;;;10.60;99.90;;;;;;5066051;28;20044;-46
2022/01/02 03:40:22;;;;;;;30.65;13.85;;;11.70;99.90;;;;;;5078489;28;20409;-44
2022/01/02 03:42:48;;;;;;;29.42;14.52;;;11.60;99.90;;;;;;5075900;28;20098;-45
2022/01/02 03:45:13;;;;;;;33.30;15.75;;;12.20;99.90;;;;;;5071273;28;20745;-45
2022/01/02 03:47:39;;;;;;;28.85;14.45;;;10.70;99.90;;;;;;5085464;28;20101;-44
2022/01/02 03:50:07;;;;;;;24.27;13.93;;;10.60;99.90;;;;;;5069698;28;20124;-46
2022/01/02 03:52:33;;;;;;;28.63;14.13;;;10.50;99.90;;;;;;5065286;28;20123;-44
2022/01/02 03:54:59;;;;;;;31.00;14.07;;;10.60;99.90;;;;;;5079347;28;20111;-44
2022/01/02 03:57:24;;;;;;;29.90;14.85;;;10.80;99.90;;;;;;5080379;28;20032;-44
2022/01/02 03:59:50;;;;;;;31.40;13.70;;;10.50;99.90;;;;;;5083690;28;20047;-47
2022/01/02 04:02:16;;;;;;;30.88;14.10;;;11.80;99.90;;;;;;5068199;28;20073;-47
2022/01/02 04:04:42;;;;;;;27.27;13.35;;;10.50;99.90;;;;;;5076422;28;20102;-44
2022/01/02 04:07:07;;;;;;;29.13;14.05;;;11.30;99.90;;;;;;5064736;28;20420;-45
2022/01/02 04:09:33;;;;;;;35.60;14.90;;;12.60;99.90;;;;;;5075571;28;20443;-44
2022/01/02 04:12:01;;;;;;;28.85;13.43;;;11.50;99.90;;;;;;5078651;28;20123;-43
2022/01/02 04:14:26;;;;;;;30.15;13.93;;;10.60;99.90;;;;;;5074235;28;20032;-44
2022/01/02 04:16:52;;;;;;;32.97;12.65;;;10.60;99.90;;;;;;5068351;28;20051;-49
2022/01/02 04:19:18;;;;;;;31.20;13.27;;;10.60;99.90;;;;;;5074956;28;20040;-46
2022/01/02 04:21:47;;;;;;;27.42;12.50;;;11.10;99.90;;;;;;5072831;28;20032;-45
2022/01/02 04:24:12;;;;;;;29.50;12.45;;;10.70;99.90;;;;;;5066997;28;20060;-46
2022/01/02 04:26:38;;;;;;;26.40;13.15;;;10.70;99.90;;;;;;5064468;28;20405;-45
2022/01/02 04:29:06;;;;;;;29.27;13.27;;;10.60;99.90;;;;;;5077347;28;20092;-50
2022/01/02 04:31:31;;;;;;;25.10;12.05;;;10.90;99.90;;;;;;5074543;28;20113;-49
2022/01/02 04:33:57;;;;;;;27.20;12.88;;;10.70;99.90;;;;;;5076141;28;20484;-49
2022/01/02 04:36:23;;;;;;;28.35;13.13;;;11.90;99.90;;;;;;5071773;28;20512;-50
2022/01/02 04:38:49;;;;;;;26.73;11.95;;;11.00;99.90;;;;;;5076908;28;20048;-45
2022/01/02 04:41:15;;;;;;;34.08;12.93;;;10.70;99.90;;;;;;5083375;28;20124;-49
2022/01/02 04:43:42;;;;;;;27.65;12.05;;;10.80;99.90;;;;;;5072043;28;20064;-49
2022/01/02 04:46:09;;;;;;;29.27;13.15;;;11.40;99.90;;;;;;5074284;28;20037;-48
2022/01/02 04:48:34;;;;;;;29.77;12.73;;;10.80;99.90;;;;;;5083512;28;20040;-48
2022/01/02 04:51:02;;;;;;;27.17;12.63;;;10.80;99.90;;;;;;5082737;28;20047;-46
2022/01/02 04:53:30;;;;;;;35.97;13.98;;;10.80;99.90;;;;;;5080782;28;20508;-48
2022/01/02 04:55:55;;;;;;;24.52;13.02;;;11.70;99.90;;;;;;5066192;28;20520;-46
2022/01/02 04:58:23;;;;;;;28.42;13.32;;;10.80;99.90;;;;;;5083615;28;20073;-48
2022/01/02 05:00:49;;;;;;;27.95;12.20;;;12.00;99.90;;;;;;5071636;28;20508;-47
2022/01/02 05:03:14;;;;;;;28.15;11.65;;;10.80;99.90;;;;;;5082897;28;20035;-47
2022/01/02 05:05:42;;;;;;;29.90;12.73;;;10.70;99.90;;;;;;5076906;28;20488;-47
2022/01/02 05:08:08;;;;;;;32.40;11.23;;;8.50;99.90;;;;;;5063513;28;20509;-45
2022/01/02 05:10:33;;;;;;;29.00;11.15;;;12.00;99.90;;;;;;5076659;28;20051;-44
2022/01/02 05:12:59;;;;;;;24.25;10.65;;;10.90;99.90;;;;;;5072871;28;20040;-46
2022/01/02 05:15:25;;;;;;;22.67;10.32;;;12.00;99.90;;;;;;5080247;28;20036;-44
2022/01/02 05:17:50;;;;;;;30.02;11.35;;;10.90;99.90;;;;;;5072156;28;20485;-50
2022/01/02 05:20:16;;;;;;;22.38;10.55;;;12.50;99.90;;;;;;5082005;28;20028;-46
2022/01/02 05:22:44;;;;;;;25.05;11.20;;;12.30;99.90;;;;;;5067338;28;20036;-45
2022/01/02 05:25:09;;;;;;;24.27;10.25;;;10.80;99.90;;;;;;5070253;28;20040;-45
2022/01/02 05:27:35;;;;;;;22.92;10.35;;;11.00;99.90;;;;;;5078467;28;20047;-49
2022/01/02 05:30:03;;;;;;;23.40;9.82;;;12.10;99.90;;;;;;5072755;28;20142;-46
2022/01/02 05:32:29;;;;;;;26.05;10.13;;;10.90;99.90;;;;;;5076665;28;20047;-45
2022/01/02 05:34:54;;;;;;;30.02;9.63;;;10.80;99.90;;;;;;5066048;28;20099;-45
2022/01/02 05:37:20;;;;;;;26.75;10.77;;;10.80;99.90;;;;;;5071434;28;20032;-45
2022/01/02 05:39:47;;;;;;;27.60;8.85;;;10.90;99.90;;;;;;5073846;28;20480;-47
2022/01/02 05:42:13;;;;;;;27.23;9.75;;;10.80;99.90;;;;;;5064436;28;20054;-48
2022/01/02 05:44:39;;;;;;;21.27;9.07;;;11.00;99.90;;;;;;5075932;28;20118;-46
2022/01/02 05:47:05;;;;;;;24.25;8.60;;;11.10;99.90;;;;;;5074478;28;20067;-46
2022/01/02 05:49:30;;;;;;;24.88;8.43;;;11.10;99.90;;;;;;5072212;28;20036;-46
2022/01/02 05:51:56;;;;;;;20.48;7.38;;;12.10;99.90;;;;;;5079123;28;20039;-45
2022/01/02 05:54:22;;;;;;;22.15;7.50;;;11.10;99.90;;;;;;5074183;28;20472;-45
2022/01/02 05:56:47;;;;;;;25.38;8.43;;;11.10;99.90;;;;;;5061114;28;20386;-44
2022/01/02 05:59:13;;;;;;;23.42;7.57;;;11.80;99.90;;;;;;5075144;28;20377;-49
2022/01/02 06:01:42;;;;;;;19.25;7.20;;;13.30;99.90;;;;;;5071069;28;20032;-45
2022/01/02 06:04:08;;;;;;;21.08;7.03;;;11.20;99.90;;;;;;5069089;28;20618;-46
2022/01/02 06:06:33;;;;;;;23.48;6.55;;;13.30;99.90;;;;;;5077988;28;20196;-44
2022/01/02 06:08:59;;;;;;;22.38;6.50;;;11.20;99.90;;;;;;5068317;28;20664;-43
2022/01/02 06:11:27;;;;;;;23.50;6.53;;;12.30;99.90;;;;;;5070911;28;20314;-47
2022/01/02 06:13:52;;;;;;;21.15;7.72;;;12.30;99.90;;;;;;5072382;28;20068;-45
2022/01/02 06:16:18;;;;;;;22.10;6.85;;;12.40;99.90;;;;;;5084157;28;20075;-47
2022/01/02 06:18:43;;;;;;;20.38;8.00;;;11.30;99.90;;;;;;5063971;28;20040;-49
2022/01/02 06:21:09;;;;;;;20.35;7.95;;;11.30;99.90;;;;;;5073669;28;20515;-47
2022/01/02 06:23:35;;;;;;;20.00;7.60;;;11.20;99.90;;;;;;5062356;28;20214;-44
2022/01/02 06:26:01;;;;;;;19.17;6.25;;;11.30;99.90;;;;;;5075603;28;20079;-45
2022/01/02 06:28:28;;;;;;;17.80;6.57;;;12.30;99.90;;;;;;5078514;28;20038;-44
2022/01/02 06:30:54;;;;;;;17.90;7.03;;;11.40;99.90;;;;;;5080700;28;20035;-45
2022/01/02 06:33:20;;;;;;;17.95;7.22;;;12.30;99.90;;;;;;5071537;28;20443;-48
2022/01/02 06:35:49;;;;;;;20.10;6.75;;;12.10;99.90;;;;;;5077072;28;20399;-44
2022/01/02 06:38:18;;;;;;;16.48;6.55;;;13.20;99.90;;;;;;5072942;28;20099;-44
2022/01/02 06:40:44;;;;;;;15.00;6.28;;;11.30;99.90;;;;;;5069954;28;20036;-44
2022/01/02 06:43:13;;;;;;;13.20;5.10;;;12.30;99.90;;;;;;5070354;28;20051;-46
2022/01/02 06:45:40;;;;;;;16.50;5.68;;;11.80;99.90;;;;;;5069236;28;20840;-45
2022/01/02 06:48:06;;;;;;;23.95;5.53;;;11.50;99.90;;;;;;5063053;28;20098;-46
2022/01/02 06:50:32;;;;;;;16.85;5.78;;;11.70;99.90;;;;;;5086339;28;20369;-46
2022/01/02 06:52:58;;;;;;;18.60;5.85;;;12.60;99.90;;;;;;5079553;28;20064;-45
2022/01/02 06:55:24;;;;;;;18.52;6.00;;;11.30;99.90;;;;;;5072690;28;20516;-44
2022/01/02 06:57:49;;;;;;;18.00;6.00;;;11.70;99.90;;;;;;5079049;28;20044;-47
2022/01/02 07:00:15;;;;;;;19.00;5.25;;;12.90;99.90;;;;;;5081639;28;20658;-44
2022/01/02 07:02:41;;;;;;;20.88;5.63;;;12.60;99.90;;;;;;5070508;28;20075;-45
2022/01/02 07:05:07;;;;;;;17.02;5.55;;;13.30;99.90;;;;;;5080855;28;20131;-45
2022/01/02 07:07:32;;;;;;;15.82;5.75;;;11.50;99.90;;;;;;5072035;28;20040;-43
2022/01/02 07:10:00;;;;;;;10.73;4.90;;;11.50;99.90;;;;;;5075234;28;20032;-46
2022/01/02 07:12:26;;;;;;;19.73;4.70;;;13.60;99.90;;;;;;5075574;28;20125;-46
2022/01/02 07:14:52;;;;;;;21.10;5.55;;;11.90;99.90;;;;;;5064539;28;20408;-46
2022/01/02 07:17:21;;;;;;;17.80;4.97;;;12.00;99.90;;;;;;5067506;28;20076;-46
2022/01/02 07:19:46;;;;;;;16.13;4.00;;;12.80;99.90;;;;;;5074963;28;20088;-46
2022/01/02 07:22:12;;;;;;;12.32;5.20;;;11.40;99.90;;;;;;5065508;28;20060;-45
2022/01/02 07:24:45;;;;;;;16.80;5.18;;;11.50;99.90;;;;;;5082508;28;20076;-46
2022/01/02 07:27:11;;;;;;;10.20;3.90;;;11.60;99.90;;;;;;5074412;28;20799;-49
2022/01/02 07:29:37;;;;;;;12.05;4.18;;;13.20;99.90;;;;;;5071679;28;20039;-46
2022/01/02 07:32:04;;;;;;;13.90;4.90;;;11.60;99.90;;;;;;5077560;28;20037;-47
2022/01/02 07:34:30;;;;;;;9.23;4.28;;;12.30;99.90;;;;;;5076449;28;20036;-46
2022/01/02 07:36:56;;;;;;;13.23;3.75;;;11.50;99.90;;;;;;5073655;28;20141;-49
2022/01/02 07:39:23;;;;;;;14.60;5.38;;;11.60;99.90;;;;;;5084145;28;20490;-49
2022/01/02 07:41:51;;;;;;;12.65;4.80;;;11.70;99.90;;;;;;5082199;28;20439;-47
2022/01/02 07:44:16;;;;;;;15.02;4.50;;;11.70;99.90;;;;;;5073171;28;20035;-51
2022/01/02 07:46:42;;;;;;;10.63;4.20;;;11.80;99.90;;;;;;5077477;28;20029;-49
2022/01/02 07:49:08;;;;;;;9.85;4.32;;;12.00;99.90;;;;;;5075502;28;20553;-48
2022/01/02 07:51:33;;;;;;;12.20;3.75;;;12.50;99.90;;;;;;5063079;28;20408;-48
2022/01/02 07:54:00;;;;;;;14.02;4.38;;;11.70;99.90;;;;;;5064084;28;20420;-44
2022/01/02 07:56:26;;;;;;;15.15;4.93;;;12.10;99.90;;;;;;5081772;28;20040;-46
2022/01/02 07:58:55;;;;;;;17.13;4.90;;;11.50;99.90;;;;;;5084339;28;20051;-50
2022/01/02 08:01:21;;;;;;;9.40;3.83;;;11.90;99.90;;;;;;5080504;28;20052;-47
2022/01/02 08:03:47;;;;;;;12.40;4.25;;;11.60;99.90;;;;;;5062117;28;20045;-47
2022/01/02 08:06:15;;;;;;;13.82;5.20;;;11.60;99.90;;;;;;5077833;28;20082;-51
2022/01/02 08:08:41;;;;;;;14.80;5.57;;;11.40;99.90;;;;;;5071163;28;20175;-51
2022/01/02 08:11:06;;;;;;;9.35;4.28;;;11.20;99.90;;;;;;5083279;28;20036;-49
2022/01/02 08:13:32;;;;;;;18.10;5.20;;;12.40;99.90;;;;;;5064627;28;20025;-48
2022/01/02 08:15:58;;;;;;;14.80;4.78;;;11.40;99.90;;;;;;5071533;28;20044;-50
2022/01/02 08:18:23;;;;;;;16.17;5.90;;;13.20;99.90;;;;;;5074218;28;20052;-50
2022/01/02 08:20:49;;;;;;;13.65;5.57;;;12.60;99.90;;;;;;5075914;28;20071;-50
2022/01/02 08:23:17;;;;;;;11.52;4.78;;;12.50;99.90;;;;;;5088546;28;20044;-45
2022/01/02 08:25:43;;;;;;;15.48;5.30;;;12.30;99.90;;;;;;5079102;28;20036;-49
2022/01/02 08:28:08;;;;;;;13.80;4.78;;;12.30;99.90;;;;;;5066408;28;20043;-46
2022/01/02 08:30:36;;;;;;;11.30;5.15;;;13.30;99.90;;;;;;5063639;28;20033;-45
2022/01/02 08:33:02;;;;;;;9.63;5.13;;;11.30;99.90;;;;;;5062877;28;20028;-46
2022/01/02 08:35:28;;;;;;;10.63;5.38;;;11.30;99.90;;;;;;5074594;28;20040;-44
2022/01/02 08:37:53;;;;;;;14.13;5.03;;;11.90;99.90;;;;;;5074910;28;20036;-45
2022/01/02 08:40:19;;;;;;;12.43;5.28;;;11.30;99.90;;;;;;5067038;28;20036;-45
2022/01/02 08:42:44;;;;;;;15.68;6.68;;;11.70;99.90;;;;;;5062879;28;20055;-43
2022/01/02 08:45:12;;;;;;;12.65;5.55;;;11.10;99.90;;;;;;5074482;28;20063;-45
2022/01/02 08:47:38;;;;;;;12.48;5.97;;;11.10;99.90;;;;;;5067782;28;20560;-44
2022/01/02 08:50:05;;;;;;;14.48;6.55;;;11.20;99.90;;;;;;5082274;28;20140;-45
2022/01/02 08:52:30;;;;;;;7.88;3.63;;;11.10;99.90;;;;;;5082544;28;20131;-45
2022/01/02 08:54:56;;;;;;;11.43;3.47;;;11.20;99.90;;;;;;5062634;28;20054;-47
2022/01/02 08:57:22;;;;;;;9.77;4.30;;;12.10;99.90;;;;;;5047023;28;20055;-44
2022/01/02 08:59:47;;;;;;;13.25;4.75;;;13.30;99.90;;;;;;5081981;28;20040;-47
2022/01/02 09:02:13;;;;;;;10.98;4.70;;;12.10;99.90;;;;;;5065866;28;20131;-44
2022/01/02 09:04:39;;;;;;;10.13;5.43;;;11.20;99.90;;;;;;5075616;28;20498;-44
2022/01/02 09:07:04;;;;;;;12.07;5.63;;;10.90;99.90;;;;;;5062197;28;20036;-44
2022/01/02 09:09:33;;;;;;;13.68;6.53;;;10.90;99.90;;;;;;5064888;28;20119;-44
2022/01/02 09:11:59;;;;;;;17.48;7.25;;;11.00;99.90;;;;;;5071402;28;20055;-44
2022/01/02 09:14:24;;;;;;;15.93;7.20;;;10.90;99.90;;;;;;5076843;28;20032;-46
2022/01/02 09:16:52;;;;;;;16.13;7.07;;;11.10;99.90;;;;;;5067194;28;20028;-50
2022/01/02 09:19:18;;;;;;;15.20;6.95;;;11.80;99.90;;;;;;5081588;28;20774;-44
2022/01/02 09:21:44;;;;;;;14.10;7.25;;;10.80;99.90;;;;;;5070587;28;20401;-45
2022/01/02 09:24:09;;;;;;;15.43;7.32;;;10.80;99.90;;;;;;5075807;28;20033;-46
2022/01/02 09:26:35;;;;;;;14.55;6.30;;;11.00;99.90;;;;;;5073154;28;20025;-45
2022/01/02 09:29:01;;;;;;;11.65;6.78;;;12.30;99.90;;;;;;5078242;28;20055;-46
2022/01/02 09:31:28;;;;;;;17.70;6.63;;;11.80;99.90;;;;;;5074630;28;20044;-46
2022/01/02 09:33:54;;;;;;;13.35;6.68;;;12.40;99.90;;;;;;5061399;28;20032;-45
2022/01/02 09:36:19;;;;;;;12.23;7.22;;;12.40;99.90;;;;;;5070500;28;20032;-45
2022/01/02 09:38:47;;;;;;;17.98;7.10;;;12.10;99.90;;;;;;5069520;28;20036;-44
2022/01/02 09:41:13;;;;;;;17.02;8.13;;;11.60;99.90;;;;;;5077518;28;20125;-45
2022/01/02 09:43:39;;;;;;;12.05;7.00;;;11.50;99.90;;;;;;5072913;28;20040;-45
2022/01/02 09:46:07;;;;;;;17.50;7.60;;;10.70;99.90;;;;;;5072865;28;20044;-46
2022/01/02 09:48:32;;;;;;;19.33;7.82;;;10.80;99.90;;;;;;5077783;28;20512;-46
2022/01/02 09:50:58;;;;;;;15.23;7.55;;;10.90;99.90;;;;;;5070977;28;20055;-44
2022/01/02 09:53:28;;;;;;;15.25;6.93;;;11.00;99.90;;;;;;5078290;28;20413;-45
2022/01/02 09:55:54;;;;;;;12.80;7.18;;;12.10;99.90;;;;;;5071360;28;20036;-45
2022/01/02 09:58:20;;;;;;;18.42;7.70;;;11.90;99.90;;;;;;5075646;28;20024;-46
2022/01/02 10:00:49;;;;;;;16.40;7.57;;;10.70;99.90;;;;;;5075559;28;20041;-45
2022/01/02 10:03:16;;;;;;;17.92;7.93;;;10.70;99.90;;;;;;5066497;28;20408;-46
2022/01/02 10:05:56;;;;;;;16.15;7.18;;;10.70;99.90;;;;;;5074241;28;20520;-49
2022/01/02 10:08:27;;;;;;;15.07;7.00;;;10.90;99.90;;;;;;5072043;28;20079;-49
2022/01/02 10:11:20;;;;;;;14.73;8.00;;;12.30;99.90;;;;;;5067967;28;20040;-45
2022/01/02 10:13:48;;;;;;;14.63;6.63;;;11.00;99.90;;;;;;5074803;28;20052;-46
2022/01/02 10:16:21;;;;;;;18.98;7.10;;;11.70;99.90;;;;;;5071204;28;20043;-46
2022/01/02 10:18:49;;;;;;;13.48;7.45;;;10.80;99.90;;;;;;5073979;28;20432;-46
2022/01/02 10:21:29;;;;;;;13.25;7.07;;;10.80;99.90;;;;;;5067200;28;20051;-47
2022/01/02 10:24:14;;;;;;;15.20;7.85;;;10.80;99.90;;;;;;5065504;28;20040;-45
2022/01/02 10:26:41;;;;;;;13.90;7.70;;;13.00;99.90;;;;;;5072041;28;20040;-46
2022/01/02 10:29:14;;;;;;;16.15;6.90;;;11.40;99.90;;;;;;5076417;28;20063;-46
2022/01/02 10:31:40;;;;;;;14.93;6.72;;;11.00;99.90;;;;;;5073394;28;20119;-45
2022/01/02 10:34:07;;;;;;;19.20;7.15;;;11.00;99.90;;;;;;5073856;28;20408;-47
2022/01/02 10:36:35;;;;;;;16.10;6.32;;;11.60;99.90;;;;;;5071207;28;20028;-45
2022/01/02 10:39:15;;;;;;;19.33;6.72;;;12.70;99.90;;;;;;5071748;28;20041;-47
2022/01/02 10:41:45;;;;;;;15.90;6.50;;;11.00;99.90;;;;;;5067359;28;20588;-46
2022/01/02 10:44:26;;;;;;;15.60;6.20;;;10.90;99.90;;;;;;5064749;28;20057;-49
2022/01/02 10:47:18;;;;;;;16.33;6.65;;;12.70;99.90;;;;;;5066410;28;20758;-50
2022/01/02 10:50:01;;;;;;;14.65;5.55;;;10.90;99.90;;;;;;5071128;28;20044;-50
2022/01/02 10:52:30;;;;;;;19.95;6.40;;;10.90;99.90;;;;;;5074925;28;20052;-46
2022/01/02 10:54:59;;;;;;;13.57;5.97;;;11.00;99.90;;;;;;5072432;28;20036;-45
2022/01/02 10:57:26;;;;;;;19.23;5.60;;;13.00;99.90;;;;;;5066546;28;20055;-49
2022/01/02 10:59:57;;;;;;;19.08;5.85;;;11.10;99.90;;;;;;5071870;28;20044;-45
2022/01/02 11:02:24;;;;;;;17.48;7.35;;;13.10;99.90;;;;;;5066600;28;20068;-45
2022/01/02 11:05:03;;;;;;;16.63;5.18;;;11.20;99.90;;;;;;5060918;28;20041;-47
2022/01/02 11:07:37;;;;;;;19.30;5.50;;;12.40;99.90;;;;;;5063635;28;20110;-46
2022/01/02 11:10:03;;;;;;;13.40;4.40;;;11.10;99.90;;;;;;5080522;28;20067;-47
2022/01/02 11:12:31;;;;;;;14.43;5.10;;;11.10;99.90;;;;;;5080122;28;20032;-47
2022/01/02 11:14:57;;;;;;;17.73;4.53;;;11.10;99.90;;;;;;5069724;28;20056;-45
2022/01/02 11:17:24;;;;;;;12.50;4.75;;;11.20;99.90;;;;;;5068339;28;20053;-45
2022/01/02 11:19:50;;;;;;;15.90;4.53;;;11.00;99.90;;;;;;5068704;28;20052;-45
2022/01/02 11:22:42;;;;;;;15.27;4.53;;;11.30;99.90;;;;;;5072723;28;20097;-45
2022/01/02 11:25:31;;;;;;;16.70;5.20;;;9.30;99.90;;;;;;5073593;28;20370;-51
2022/01/02 11:28:08;;;;;;;19.40;4.95;;;11.20;99.90;;;;;;5074128;28;20524;-50
2022/01/02 11:30:36;;;;;;;23.38;5.03;;;11.30;99.90;;;;;;5082344;28;20138;-45
2022/01/02 11:33:14;;;;;;;16.95;4.20;;;11.20;99.90;;;;;;5084751;28;20040;-47
2022/01/02 11:35:49;;;;;;;27.83;6.13;;;11.30;99.90;;;;;;5069583;28;20065;-46
2022/01/02 11:38:17;;;;;;;18.02;3.75;;;11.10;99.90;;;;;;5084660;28;20036;-45
2022/01/02 11:40:46;;;;;;;20.58;5.38;;;11.60;99.90;;;;;;5076476;28;20059;-46
2022/01/02 11:43:49;;;;;;;17.75;4.78;;;12.70;99.90;;;;;;5074937;28;20122;-49
2022/01/02 11:46:22;;;;;;;13.50;4.25;;;11.10;99.90;;;;;;5078686;28;20051;-45
2022/01/02 11:49:13;;;;;;;19.08;4.55;;;11.10;99.90;;;;;;5084118;28;20539;-47
2022/01/02 11:52:23;;;;;;;14.88;5.18;;;11.10;99.90;;;;;;5067333;28;20112;-49
2022/01/02 11:54:54;;;;;;;19.23;5.00;;;11.50;99.90;;;;;;5009359;28;20053;-45
2022/01/02 11:57:23;;;;;;;14.07;4.32;;;11.00;99.90;;;;;;4994678;28;20388;-47
2022/01/02 11:59:48;;;;;;;17.55;4.38;;;11.90;99.90;;;;;;5009821;28;20049;-47
2022/01/02 12:02:26;;;;;;;18.23;4.35;;;11.00;99.90;;;;;;5013990;28;20108;-49
2022/01/02 12:07:53;;;;;;;22.42;5.22;;;11.10;99.90;;;;;;5005088;28;20526;-46
2022/01/02 12:10:22;;;;;;;17.98;3.92;;;11.10;99.90;;;;;;4923943;29;20111;-49
2022/01/02 12:12:59;;;;;;;19.77;4.25;;;11.00;99.90;;;;;;4924886;29;20056;-52
2022/01/02 12:15:31;;;;;;;20.67;4.15;;;10.90;99.90;;;;;;4923113;29;20054;-47
2022/01/02 12:18:54;;;;;;;17.90;3.67;;;11.80;99.90;;;;;;4923531;29;20056;-48
2022/01/02 12:21:20;;;;;;;19.77;3.83;;;11.90;99.90;;;;;;4849383;29;20101;-46
2022/01/02 12:23:45;;;;;;;21.20;3.60;;;10.90;99.90;;;;;;4848933;29;20046;-47
2022/01/02 12:26:16;;;;;;;19.77;4.18;;;11.80;99.90;;;;;;4849149;29;20594;-47
2022/01/02 12:28:48;;;;;;;22.33;4.43;;;11.10;99.90;;;;;;4849608;29;20045;-46
2022/01/02 12:31:18;;;;;;;18.65;3.47;;;11.20;99.90;;;;;;4879305;29;20492;-46
2022/01/02 12:33:45;;;;;;;22.48;4.03;;;11.30;99.90;;;;;;4924369;29;20654;-46
2022/01/02 12:36:21;;;;;;;11.90;2.83;;;11.90;99.90;;;;;;4924486;29;20468;-45
2022/01/02 12:38:49;;;;;;;20.85;3.55;;;11.10;99.90;;;;;;4924391;29;20077;-44
2022/01/02 12:41:17;;;;;;;18.38;3.50;;;12.30;99.90;;;;;;4924361;29;20737;-46
2022/01/02 12:43:52;;;;;;;19.55;3.17;;;11.70;99.90;;;;;;4923865;29;20070;-46
2022/01/02 12:46:49;;;;;;;13.65;2.50;;;11.10;99.90;;;;;;4931954;28;20737;-46
2022/01/02 12:49:18;;;;;;;18.50;3.25;;;11.10;99.90;;;;;;5013180;28;20038;-46
2022/01/02 12:51:52;;;;;;;16.65;4.03;;;11.80;99.90;;;;;;5044616;28;20040;-45
2022/01/02 12:54:27;;;;;;;16.88;3.30;;;11.50;99.90;;;;;;5076973;28;21276;-46
2022/01/02 12:56:55;;;;;;;14.43;3.10;;;11.10;99.90;;;;;;5080793;28;20536;-45